Terminal Aerodrome Forecast
Issued by NWS

Home | Current Version | Previous Version | Text Only | Print | Product List | Glossary On
Versions: 1 2 3 4 5 6 7 8 9 10 11 12 13 14 15 16 17 18 19
089
FTUS46 KMFR 191724
TAFOTH
TAF
KOTH 191724Z 1918/2018 35011KT P6SM SCT025
     FM192000 35012G20KT P6SM SCT025
     FM192200 VRB03KT P6SM SKC
     FM200600 15007KT P6SM BKN050=

USA.gov is the U.S. government's official web portal to all federal, state and local government web resources and services.